Time;durP1;ratioP1;P1;durP2;ratioP2;P2;SDS_P1;SDS_P2;PMS_P1;PMS_P2;Temp;Humidity;BMP_temperature;BMP_pressure;BME280_temperature;BME280_humidity;BME280_pressure;Samples;Min_cycle;Max_cycle;Signal;HPM_P1;HPM_P2
2023/07/19 00:01:07;;;;;;;5.03;3.95;;;;;;;;;;4404620;32;316807;-87
2023/07/19 00:03:35;;;;;;;6.20;4.40;;;;;;;;;;4402958;32;316838;-86
2023/07/19 00:06:02;;;;;;;7.32;4.85;;;;;;;;;;4414233;32;316686;-86
2023/07/19 00:08:32;;;;;;;6.95;4.87;;;;;;;;;;4415603;32;316625;-94
2023/07/19 00:11:00;;;;;;;6.00;4.55;;;;;;;;;;4414167;32;316689;-86
2023/07/19 00:13:27;;;;;;;7.15;4.50;;;;;;;;;;4427503;32;317056;-86
2023/07/19 00:15:54;;;;;;;5.43;4.68;;;;;;;;;;4437480;32;20630;-85
2023/07/19 00:18:22;;;;;;;5.22;4.20;;;;;;;;;;4437355;32;20597;-87
2023/07/19 00:20:49;;;;;;;5.30;4.57;;;;;;;;;;4426687;32;315648;-86
2023/07/19 00:23:17;;;;;;;9.75;5.32;;;;;;;;;;4415924;32;316641;-86
2023/07/19 00:25:46;;;;;;;5.53;4.57;;;;;;;;;;4402244;32;415905;-85
2023/07/19 00:28:13;;;;;;;7.35;4.90;;;;;;;;;;4414366;32;316541;-90
2023/07/19 00:30:42;;;;;;;4.90;3.90;;;;;;;;;;4427007;32;316559;-85
2023/07/19 00:33:09;;;;;;;6.37;4.32;;;;;;;;;;4405330;32;316846;-85
2023/07/19 00:35:41;;;;;;;8.23;5.18;;;;;;;;;;4413632;32;349602;-87
2023/07/19 00:38:08;;;;;;;6.50;5.00;;;;;;;;;;4402725;32;316683;-86
2023/07/19 00:40:36;;;;;;;5.60;4.25;;;;;;;;;;4415059;32;316753;-85
2023/07/19 00:43:09;;;;;;;9.50;4.40;;;;;;;;;;4405877;32;316534;-86
2023/07/19 00:45:36;;;;;;;10.52;4.30;;;;;;;;;;4416713;32;316717;-85
2023/07/19 00:48:04;;;;;;;9.00;4.30;;;;;;;;;;4401896;32;317666;-86
2023/07/19 00:50:31;;;;;;;6.87;4.85;;;;;;;;;;4413992;32;336728;-86
2023/07/19 00:52:59;;;;;;;5.75;4.62;;;;;;;;;;4418909;32;316606;-85
2023/07/19 00:55:26;;;;;;;5.95;4.53;;;;;;;;;;4410034;32;316788;-86
2023/07/19 00:57:54;;;;;;;5.43;4.45;;;;;;;;;;4421847;32;316732;-87
2023/07/19 01:00:24;;;;;;;6.65;4.30;;;;;;;;;;4431362;32;316566;-86
2023/07/19 01:02:51;;;;;;;6.22;4.80;;;;;;;;;;4421533;32;316719;-86
2023/07/19 01:05:19;;;;;;;7.65;4.25;;;;;;;;;;4407459;32;415606;-86
2023/07/19 01:07:46;;;;;;;6.87;5.37;;;;;;;;;;4420871;32;316735;-85
2023/07/19 01:10:14;;;;;;;4.72;4.22;;;;;;;;;;4409222;32;316809;-86
2023/07/19 01:12:41;;;;;;;6.10;4.80;;;;;;;;;;4421180;32;316697;-84
2023/07/19 01:15:09;;;;;;;5.75;4.20;;;;;;;;;;4421157;32;316572;-85
2023/07/19 01:17:38;;;;;;;5.60;4.75;;;;;;;;;;4420859;32;316689;-85
2023/07/19 01:20:08;;;;;;;8.52;4.68;;;;;;;;;;4420785;32;316544;-94
2023/07/19 01:22:37;;;;;;;7.50;4.47;;;;;;;;;;4409665;32;316798;-87
2023/07/19 01:25:05;;;;;;;11.18;5.37;;;;;;;;;;4419829;32;316689;-84
2023/07/19 01:27:32;;;;;;;8.00;5.07;;;;;;;;;;4409043;32;317831;-85
2023/07/19 01:30:00;;;;;;;7.18;4.85;;;;;;;;;;4420861;32;316540;-84
2023/07/19 01:32:27;;;;;;;7.65;5.15;;;;;;;;;;4408575;32;332433;-85
2023/07/19 01:34:55;;;;;;;5.55;4.72;;;;;;;;;;4421386;32;316817;-85
2023/07/19 01:37:22;;;;;;;6.03;5.30;;;;;;;;;;4410333;32;317037;-85
2023/07/19 01:39:52;;;;;;;9.80;5.70;;;;;;;;;;4420598;32;316751;-85
2023/07/19 01:42:19;;;;;;;6.18;5.20;;;;;;;;;;4410072;32;316724;-85
2023/07/19 01:44:46;;;;;;;5.97;5.15;;;;;;;;;;4430803;32;316548;-86
2023/07/19 01:47:14;;;;;;;6.12;5.53;;;;;;;;;;4418744;32;316520;-84
2023/07/19 01:49:42;;;;;;;9.48;5.57;;;;;;;;;;4441427;32;20535;-85
2023/07/19 01:52:09;;;;;;;10.38;5.78;;;;;;;;;;4420770;32;315792;-86
2023/07/19 01:54:36;;;;;;;6.62;4.80;;;;;;;;;;4441620;32;20243;-84
2023/07/19 01:57:06;;;;;;;10.52;4.95;;;;;;;;;;4441591;32;20630;-85
2023/07/19 01:59:34;;;;;;;7.07;4.87;;;;;;;;;;4441825;32;20332;-85
2023/07/19 02:02:02;;;;;;;9.70;6.10;;;;;;;;;;4419423;32;315771;-85
2023/07/19 02:04:29;;;;;;;7.18;5.25;;;;;;;;;;4417432;32;316354;-84
2023/07/19 02:06:56;;;;;;;11.82;5.60;;;;;;;;;;4406025;32;316617;-80
2023/07/19 02:09:24;;;;;;;8.88;4.90;;;;;;;;;;4417193;32;317831;-86
2023/07/19 02:11:51;;;;;;;5.97;4.50;;;;;;;;;;4406316;32;334395;-85
2023/07/19 02:14:21;;;;;;;7.57;4.68;;;;;;;;;;4418008;32;316483;-86
2023/07/19 02:16:48;;;;;;;8.75;5.18;;;;;;;;;;4407822;32;316748;-86
2023/07/19 02:19:16;;;;;;;9.18;4.40;;;;;;;;;;4418685;32;316693;-93
2023/07/19 02:21:43;;;;;;;6.28;4.60;;;;;;;;;;4418020;32;316629;-85
2023/07/19 02:24:11;;;;;;;6.50;4.75;;;;;;;;;;4406283;32;316609;-85
2023/07/19 02:26:38;;;;;;;5.68;4.72;;;;;;;;;;4417434;32;316397;-85
2023/07/19 02:29:06;;;;;;;8.65;5.32;;;;;;;;;;4405391;32;316480;-84
2023/07/19 02:31:35;;;;;;;7.55;5.22;;;;;;;;;;4417402;32;316610;-84
2023/07/19 02:34:02;;;;;;;9.57;5.63;;;;;;;;;;4406018;32;342194;-84
2023/07/19 02:36:30;;;;;;;7.40;4.80;;;;;;;;;;4417927;32;316674;-85
2023/07/19 02:38:57;;;;;;;7.22;5.55;;;;;;;;;;4406823;32;316706;-84
2023/07/19 02:41:25;;;;;;;6.60;4.80;;;;;;;;;;4399861;32;316698;-85
2023/07/19 02:43:52;;;;;;;11.85;5.32;;;;;;;;;;4407534;32;316741;-85
2023/07/19 02:46:20;;;;;;;6.97;5.37;;;;;;;;;;4418293;32;316451;-85
2023/07/19 02:48:49;;;;;;;8.20;5.95;;;;;;;;;;4428786;32;316596;-86
2023/07/19 02:51:16;;;;;;;7.82;5.28;;;;;;;;;;4438280;32;20526;-85
2023/07/19 02:53:44;;;;;;;7.12;5.62;;;;;;;;;;4428200;32;315726;-84
2023/07/19 02:56:11;;;;;;;7.03;5.05;;;;;;;;;;4406492;32;316661;-85
2023/07/19 02:58:40;;;;;;;6.12;5.07;;;;;;;;;;4438321;32;20645;-86
2023/07/19 03:01:08;;;;;;;7.20;4.90;;;;;;;;;;4426794;32;315508;-85
2023/07/19 03:03:36;;;;;;;9.80;5.47;;;;;;;;;;4415626;32;316752;-85
2023/07/19 03:06:05;;;;;;;10.07;5.87;;;;;;;;;;4438353;32;20696;-86
2023/07/19 03:08:34;;;;;;;7.80;5.80;;;;;;;;;;4427776;32;316898;-85
2023/07/19 03:11:02;;;;;;;6.90;5.43;;;;;;;;;;4416375;32;316634;-85
2023/07/19 03:13:30;;;;;;;8.27;5.87;;;;;;;;;;4438653;32;20617;-85
2023/07/19 03:15:58;;;;;;;9.25;5.62;;;;;;;;;;4437770;32;20296;-86
2023/07/19 03:18:26;;;;;;;10.73;5.60;;;;;;;;;;4438010;32;20354;-85
2023/07/19 03:20:58;;;;;;;9.77;6.43;;;;;;;;;;4405053;32;316745;-85
2023/07/19 03:23:30;;;;;;;9.38;6.07;;;;;;;;;;4437959;32;20335;-85
2023/07/19 03:25:58;;;;;;;10.88;6.20;;;;;;;;;;4437860;32;20605;-85
2023/07/19 03:28:26;;;;;;;10.00;5.93;;;;;;;;;;4425772;32;378539;-84
2023/07/19 03:30:54;;;;;;;7.45;5.95;;;;;;;;;;4415821;32;317723;-85
2023/07/19 03:33:23;;;;;;;7.90;5.57;;;;;;;;;;4437797;32;20599;-85
2023/07/19 03:35:50;;;;;;;7.90;5.95;;;;;;;;;;4437619;32;20307;-84
2023/07/19 03:38:19;;;;;;;9.82;5.82;;;;;;;;;;4437795;32;20286;-85
2023/07/19 03:40:48;;;;;;;9.43;6.15;;;;;;;;;;4404892;32;315668;-80
2023/07/19 03:43:15;;;;;;;7.32;6.22;;;;;;;;;;4426221;32;316782;-81
2023/07/19 03:45:44;;;;;;;8.70;6.12;;;;;;;;;;4437600;32;20535;-80
2023/07/19 03:48:11;;;;;;;8.77;6.37;;;;;;;;;;4437501;32;20562;-80
2023/07/19 03:50:38;;;;;;;9.45;6.65;;;;;;;;;;4404437;32;315589;-92
2023/07/19 03:53:06;;;;;;;12.35;5.93;;;;;;;;;;4416357;32;316825;-81
2023/07/19 03:55:34;;;;;;;7.45;5.62;;;;;;;;;;4414589;32;343213;-79
2023/07/19 03:58:03;;;;;;;7.05;5.70;;;;;;;;;;4405690;32;316748;-89
2023/07/19 04:00:30;;;;;;;12.95;5.90;;;;;;;;;;4416137;32;316810;-85
2023/07/19 04:02:58;;;;;;;7.07;5.85;;;;;;;;;;4403710;32;317915;-85
2023/07/19 04:05:25;;;;;;;12.23;6.60;;;;;;;;;;4416226;32;316696;-85
2023/07/19 04:07:53;;;;;;;7.47;5.22;;;;;;;;;;4404725;32;317562;-85
2023/07/19 04:10:20;;;;;;;6.95;5.20;;;;;;;;;;4415584;32;316740;-85
2023/07/19 04:12:48;;;;;;;7.90;6.07;;;;;;;;;;4403112;32;351469;-85
2023/07/19 04:15:17;;;;;;;11.43;5.93;;;;;;;;;;4415781;32;316722;-84
2023/07/19 04:17:44;;;;;;;9.93;6.28;;;;;;;;;;4405231;32;342034;-85
2023/07/19 04:20:12;;;;;;;10.98;6.18;;;;;;;;;;4416061;32;316910;-85
2023/07/19 04:22:40;;;;;;;15.70;6.43;;;;;;;;;;4415804;32;317939;-84
2023/07/19 04:25:09;;;;;;;21.02;7.20;;;;;;;;;;4402756;32;416905;-85
2023/07/19 04:27:37;;;;;;;10.38;6.12;;;;;;;;;;4415431;32;317977;-84
2023/07/19 04:30:05;;;;;;;12.27;6.25;;;;;;;;;;4403251;32;317839;-85
2023/07/19 04:32:34;;;;;;;10.25;6.30;;;;;;;;;;4414935;32;316629;-84
2023/07/19 04:35:02;;;;;;;9.20;6.82;;;;;;;;;;4404204;32;318041;-85
2023/07/19 04:37:29;;;;;;;8.25;6.30;;;;;;;;;;4414607;32;317041;-84
2023/07/19 04:39:57;;;;;;;9.03;5.73;;;;;;;;;;4413483;32;316899;-85
2023/07/19 04:42:24;;;;;;;13.70;6.15;;;;;;;;;;4436936;32;20549;-84
2023/07/19 04:44:51;;;;;;;7.95;6.37;;;;;;;;;;4436810;32;20197;-84
2023/07/19 04:47:19;;;;;;;9.25;6.40;;;;;;;;;;4403775;32;315610;-85
2023/07/19 04:49:48;;;;;;;12.30;7.43;;;;;;;;;;4436960;32;20680;-86
2023/07/19 04:52:15;;;;;;;11.40;6.85;;;;;;;;;;4425696;32;316674;-85
2023/07/19 04:54:43;;;;;;;17.23;8.35;;;;;;;;;;4402576;32;317876;-84
2023/07/19 04:57:10;;;;;;;13.02;8.00;;;;;;;;;;4415474;32;317676;-84
2023/07/19 04:59:37;;;;;;;17.15;8.73;;;;;;;;;;4404244;32;317536;-84
2023/07/19 05:02:05;;;;;;;11.80;7.45;;;;;;;;;;4413916;32;317800;-84
2023/07/19 05:04:33;;;;;;;9.18;7.05;;;;;;;;;;4403791;32;317862;-85
2023/07/19 05:07:02;;;;;;;11.20;7.55;;;;;;;;;;4415594;32;316501;-85
2023/07/19 05:09:29;;;;;;;18.00;7.62;;;;;;;;;;4414454;32;317780;-84
2023/07/19 05:11:57;;;;;;;30.40;9.68;;;;;;;;;;4393141;32;416835;-84
2023/07/19 05:14:26;;;;;;;49.90;15.55;;;;;;;;;;4415745;32;317599;-84
2023/07/19 05:16:53;;;;;;;18.75;9.68;;;;;;;;;;4404802;32;318592;-84
2023/07/19 05:19:21;;;;;;;12.88;7.75;;;;;;;;;;4414534;32;317433;-84
2023/07/19 05:21:48;;;;;;;19.12;7.75;;;;;;;;;;4405488;32;318130;-85
2023/07/19 05:24:17;;;;;;;11.60;7.45;;;;;;;;;;4415899;32;317605;-84
2023/07/19 05:26:45;;;;;;;11.23;6.80;;;;;;;;;;4403069;32;317560;-84
2023/07/19 05:29:12;;;;;;;14.98;6.82;;;;;;;;;;4425845;32;317764;-86
2023/07/19 05:31:40;;;;;;;14.23;6.40;;;;;;;;;;4436512;32;20572;-85
2023/07/19 05:34:08;;;;;;;7.80;5.82;;;;;;;;;;4436450;32;20279;-84
2023/07/19 05:36:37;;;;;;;13.68;7.55;;;;;;;;;;4414672;32;345970;-85
2023/07/19 05:39:05;;;;;;;10.02;6.68;;;;;;;;;;4405166;32;317771;-85
2023/07/19 05:41:34;;;;;;;8.95;6.87;;;;;;;;;;4417407;32;317655;-85
2023/07/19 05:44:01;;;;;;;10.95;7.50;;;;;;;;;;4439518;32;20250;-86
2023/07/19 05:46:28;;;;;;;9.70;6.87;;;;;;;;;;4417091;32;316600;-85
2023/07/19 05:48:56;;;;;;;9.07;7.45;;;;;;;;;;4417033;32;316596;-85
2023/07/19 05:51:23;;;;;;;8.48;6.57;;;;;;;;;;4406665;32;316604;-85
2023/07/19 05:53:50;;;;;;;13.93;7.12;;;;;;;;;;4416837;32;316571;-84
2023/07/19 05:56:19;;;;;;;14.15;7.35;;;;;;;;;;4407424;32;317659;-85
2023/07/19 05:58:48;;;;;;;17.98;9.40;;;;;;;;;;4417998;32;317685;-84
2023/07/19 06:01:17;;;;;;;14.80;7.85;;;;;;;;;;4417024;32;317527;-84
2023/07/19 06:03:44;;;;;;;10.70;7.68;;;;;;;;;;4407227;32;317691;-86
2023/07/19 06:06:12;;;;;;;10.27;6.97;;;;;;;;;;4415163;32;317698;-85
2023/07/19 06:08:40;;;;;;;9.60;6.55;;;;;;;;;;4405486;32;317829;-84
2023/07/19 06:11:08;;;;;;;19.27;7.40;;;;;;;;;;4416928;32;316483;-85
2023/07/19 06:13:35;;;;;;;9.40;6.82;;;;;;;;;;4416889;32;317600;-84
2023/07/19 06:16:04;;;;;;;7.57;6.40;;;;;;;;;;4403978;32;416044;-85
2023/07/19 06:18:31;;;;;;;9.85;6.35;;;;;;;;;;4417231;32;316758;-85
2023/07/19 06:20:59;;;;;;;11.02;5.55;;;;;;;;;;4406174;32;330198;-84
2023/07/19 06:23:26;;;;;;;10.65;6.90;;;;;;;;;;4417727;32;317590;-85
2023/07/19 06:25:54;;;;;;;11.27;6.62;;;;;;;;;;4406456;32;317687;-85
2023/07/19 06:28:21;;;;;;;10.95;6.47;;;;;;;;;;4416063;32;317724;-84
2023/07/19 06:30:49;;;;;;;9.02;6.82;;;;;;;;;;4407032;32;317740;-85
2023/07/19 06:33:18;;;;;;;7.80;6.15;;;;;;;;;;4415842;32;316695;-85
2023/07/19 06:35:46;;;;;;;8.73;5.93;;;;;;;;;;4406063;32;316993;-84
2023/07/19 06:38:13;;;;;;;5.90;5.37;;;;;;;;;;4415778;32;316546;-84
2023/07/19 06:40:41;;;;;;;11.57;5.55;;;;;;;;;;4407244;32;316716;-85
2023/07/19 06:43:09;;;;;;;10.80;5.65;;;;;;;;;;4415790;32;317616;-85
2023/07/19 06:45:36;;;;;;;7.55;6.50;;;;;;;;;;4406650;32;318467;-84
2023/07/19 06:48:04;;;;;;;10.20;5.95;;;;;;;;;;4415205;32;316526;-84
2023/07/19 06:50:33;;;;;;;6.87;5.90;;;;;;;;;;4416959;32;317678;-85
2023/07/19 06:53:01;;;;;;;9.15;5.82;;;;;;;;;;4406550;32;316825;-85
2023/07/19 06:55:28;;;;;;;8.50;6.35;;;;;;;;;;4416188;32;316753;-84
2023/07/19 06:57:56;;;;;;;8.05;5.90;;;;;;;;;;4406925;32;316815;-84
2023/07/19 07:00:23;;;;;;;6.15;5.55;;;;;;;;;;4414860;32;316869;-85
2023/07/19 07:02:50;;;;;;;7.53;5.25;;;;;;;;;;4406182;32;316676;-85
2023/07/19 07:05:18;;;;;;;13.15;5.57;;;;;;;;;;4417805;32;356269;-86
2023/07/19 07:07:47;;;;;;;12.00;6.57;;;;;;;;;;4405607;32;318040;-85
2023/07/19 07:10:14;;;;;;;10.40;5.95;;;;;;;;;;4416522;32;316516;-84
2023/07/19 07:12:43;;;;;;;12.50;5.28;;;;;;;;;;4406262;32;317869;-85
2023/07/19 07:15:10;;;;;;;6.05;5.20;;;;;;;;;;4415431;32;318060;-85
2023/07/19 07:17:40;;;;;;;9.00;5.03;;;;;;;;;;4407310;32;316754;-85
2023/07/19 07:20:08;;;;;;;6.10;4.85;;;;;;;;;;4416963;32;316809;-85
2023/07/19 07:22:36;;;;;;;7.12;4.62;;;;;;;;;;4417197;32;316666;-85
2023/07/19 07:25:05;;;;;;;7.55;4.57;;;;;;;;;;4402136;32;415863;-85
2023/07/19 07:27:33;;;;;;;5.90;5.03;;;;;;;;;;4417279;32;316752;-85
2023/07/19 07:30:00;;;;;;;9.85;6.07;;;;;;;;;;4404802;32;317173;-84
2023/07/19 07:32:27;;;;;;;8.25;4.75;;;;;;;;;;4417357;32;316920;-85
2023/07/19 07:34:55;;;;;;;9.15;4.85;;;;;;;;;;4427197;32;316763;-84
2023/07/19 07:37:22;;;;;;;6.32;4.70;;;;;;;;;;4405789;32;316693;-85
2023/07/19 07:39:50;;;;;;;6.12;5.12;;;;;;;;;;4416387;32;316721;-85
2023/07/19 07:42:20;;;;;;;9.23;4.70;;;;;;;;;;4406906;32;316985;-85
2023/07/19 07:44:48;;;;;;;6.30;3.78;;;;;;;;;;4415977;32;343010;-85
2023/07/19 07:47:15;;;;;;;7.97;4.87;;;;;;;;;;4437691;32;20535;-85
2023/07/19 07:49:43;;;;;;;6.03;4.80;;;;;;;;;;4437541;32;20637;-85
2023/07/19 07:52:14;;;;;;;10.43;4.80;;;;;;;;;;4437436;32;20638;-85
2023/07/19 07:54:41;;;;;;;11.02;5.05;;;;;;;;;;4404841;32;316577;-85
2023/07/19 07:57:08;;;;;;;9.05;5.53;;;;;;;;;;4416913;32;317700;-85
2023/07/19 07:59:37;;;;;;;5.55;4.55;;;;;;;;;;4405806;32;347714;-86
2023/07/19 08:02:06;;;;;;;7.90;5.03;;;;;;;;;;4415856;32;316868;-87
2023/07/19 08:04:34;;;;;;;5.50;4.87;;;;;;;;;;4402621;32;316857;-85
2023/07/19 08:07:01;;;;;;;6.45;5.03;;;;;;;;;;4437349;32;20627;-85
2023/07/19 08:09:29;;;;;;;14.82;5.35;;;;;;;;;;4437375;32;20545;-85
2023/07/19 08:11:56;;;;;;;8.88;5.68;;;;;;;;;;4405018;32;317518;-85
2023/07/19 08:14:23;;;;;;;7.72;5.18;;;;;;;;;;4426699;32;316528;-85
2023/07/19 08:16:54;;;;;;;6.95;5.75;;;;;;;;;;4415823;32;316667;-85
2023/07/19 08:19:21;;;;;;;13.48;5.60;;;;;;;;;;4405408;32;316968;-85
2023/07/19 08:21:49;;;;;;;10.60;5.45;;;;;;;;;;4416524;32;317956;-85
2023/07/19 08:24:16;;;;;;;7.45;5.60;;;;;;;;;;4406495;32;317844;-85
2023/07/19 08:26:44;;;;;;;11.80;5.22;;;;;;;;;;4415750;32;340140;-88
2023/07/19 08:29:11;;;;;;;12.02;5.90;;;;;;;;;;4416981;32;317945;-85
2023/07/19 08:31:39;;;;;;;7.40;5.35;;;;;;;;;;4404866;32;317600;-85
2023/07/19 08:34:08;;;;;;;12.90;5.65;;;;;;;;;;4425954;32;316902;-86
2023/07/19 08:36:35;;;;;;;6.62;5.12;;;;;;;;;;4436824;32;20668;-85
2023/07/19 08:39:02;;;;;;;7.95;4.43;;;;;;;;;;4404963;32;315605;-86
2023/07/19 08:41:32;;;;;;;7.00;4.68;;;;;;;;;;4414458;32;316730;-86
2023/07/19 08:44:00;;;;;;;8.75;4.97;;;;;;;;;;4414628;32;316686;-85
2023/07/19 08:46:27;;;;;;;5.37;4.50;;;;;;;;;;4406111;32;316702;-86
2023/07/19 08:48:55;;;;;;;9.55;4.90;;;;;;;;;;4415398;32;316636;-85
2023/07/19 08:51:26;;;;;;;8.85;3.80;;;;;;;;;;4405379;32;316657;-85
2023/07/19 08:53:53;;;;;;;8.48;4.35;;;;;;;;;;4415510;32;316940;-85
2023/07/19 08:56:22;;;;;;;9.98;4.10;;;;;;;;;;4402724;32;316477;-85
2023/07/19 08:58:49;;;;;;;6.57;4.93;;;;;;;;;;4415806;32;316722;-85
2023/07/19 09:01:16;;;;;;;7.30;4.45;;;;;;;;;;4405100;32;338751;-86
2023/07/19 09:03:44;;;;;;;7.18;4.55;;;;;;;;;;4413825;32;316773;-85
2023/07/19 09:06:11;;;;;;;10.43;4.85;;;;;;;;;;4415877;32;316633;-86
2023/07/19 09:08:41;;;;;;;5.32;4.82;;;;;;;;;;4401752;32;417572;-85
2023/07/19 09:11:09;;;;;;;13.93;4.10;;;;;;;;;;4415764;32;316645;-86
2023/07/19 09:13:38;;;;;;;5.90;4.03;;;;;;;;;;4406264;32;317685;-85
2023/07/19 09:16:06;;;;;;;14.00;4.95;;;;;;;;;;4417848;32;316982;-85
2023/07/19 09:18:36;;;;;;;5.05;3.83;;;;;;;;;;4407529;32;317644;-85
2023/07/19 09:21:05;;;;;;;4.62;3.25;;;;;;;;;;4418416;32;316566;-86
2023/07/19 09:23:36;;;;;;;5.40;4.00;;;;;;;;;;4408285;32;316586;-85
2023/07/19 09:26:06;;;;;;;5.37;3.85;;;;;;;;;;4416708;32;317039;-85
2023/07/19 09:28:35;;;;;;;5.40;3.72;;;;;;;;;;4405721;32;316511;-90
2023/07/19 09:31:04;;;;;;;8.02;4.03;;;;;;;;;;4410951;32;316477;-88
2023/07/19 09:33:32;;;;;;;5.07;4.20;;;;;;;;;;4439566;32;20308;-85
2023/07/19 09:35:59;;;;;;;5.68;3.75;;;;;;;;;;4439408;32;20726;-85
2023/07/19 09:38:27;;;;;;;5.72;3.95;;;;;;;;;;4439459;32;20545;-85
2023/07/19 09:40:55;;;;;;;6.70;4.60;;;;;;;;;;4427243;32;315478;-84
2023/07/19 09:43:25;;;;;;;4.30;3.17;;;;;;;;;;4417949;32;316730;-85
2023/07/19 09:45:52;;;;;;;4.72;3.33;;;;;;;;;;4439321;32;20573;-84
2023/07/19 09:48:21;;;;;;;11.32;4.22;;;;;;;;;;4439297;32;20549;-84
2023/07/19 09:50:50;;;;;;;6.20;3.92;;;;;;;;;;4416063;32;316906;-85
2023/07/19 09:53:21;;;;;;;4.28;3.78;;;;;;;;;;4403754;32;327224;-84
2023/07/19 09:55:49;;;;;;;6.72;4.03;;;;;;;;;;4418226;32;316756;-85
2023/07/19 09:58:18;;;;;;;10.40;4.70;;;;;;;;;;4417011;32;316926;-85
2023/07/19 10:00:47;;;;;;;9.45;4.70;;;;;;;;;;4439036;32;20284;-85
2023/07/19 10:03:20;;;;;;;7.97;3.70;;;;;;;;;;4417271;32;315664;-85
2023/07/19 10:05:56;;;;;;;8.75;4.25;;;;;;;;;;4428668;32;316452;-85
2023/07/19 10:08:24;;;;;;;11.40;4.50;;;;;;;;;;4439093;32;20549;-85
2023/07/19 10:10:57;;;;;;;9.35;3.65;;;;;;;;;;4416774;32;316720;-85
2023/07/19 10:13:30;;;;;;;16.92;4.62;;;;;;;;;;4418141;32;317125;-85
2023/07/19 10:15:59;;;;;;;6.70;4.00;;;;;;;;;;4438872;32;20576;-85
2023/07/19 10:18:27;;;;;;;6.43;4.00;;;;;;;;;;4416799;32;315775;-85
2023/07/19 10:21:01;;;;;;;6.22;3.47;;;;;;;;;;4418611;32;317138;-85
2023/07/19 10:23:30;;;;;;;8.73;4.47;;;;;;;;;;4404057;32;419610;-86
2023/07/19 10:25:58;;;;;;;5.85;4.20;;;;;;;;;;4416466;32;316794;-85
2023/07/19 10:28:30;;;;;;;6.05;4.32;;;;;;;;;;4438681;32;20307;-85
2023/07/19 10:31:01;;;;;;;8.13;4.30;;;;;;;;;;4438420;32;20650;-85
2023/07/19 10:33:30;;;;;;;5.37;3.87;;;;;;;;;;4427791;32;314344;-85
2023/07/19 10:36:00;;;;;;;9.15;4.30;;;;;;;;;;4418083;32;317009;-85
2023/07/19 10:38:30;;;;;;;4.60;3.50;;;;;;;;;;4407350;32;316802;-86
2023/07/19 10:40:58;;;;;;;4.57;3.62;;;;;;;;;;4417714;32;316712;-85
2023/07/19 10:43:26;;;;;;;4.50;3.85;;;;;;;;;;4405491;32;316550;-85
2023/07/19 10:45:55;;;;;;;6.72;4.65;;;;;;;;;;4417283;32;317029;-85
2023/07/19 10:48:29;;;;;;;4.68;3.83;;;;;;;;;;4406653;32;316615;-85
2023/07/19 10:50:58;;;;;;;7.97;4.68;;;;;;;;;;4415056;32;316612;-85
2023/07/19 10:53:25;;;;;;;6.32;4.75;;;;;;;;;;4417133;32;316814;-84
2023/07/19 10:55:54;;;;;;;4.37;3.85;;;;;;;;;;4438290;32;20668;-84
2023/07/19 10:58:22;;;;;;;9.77;4.75;;;;;;;;;;4416780;32;315716;-85
2023/07/19 11:00:50;;;;;;;5.03;4.00;;;;;;;;;;4427142;32;316444;-84
2023/07/19 11:03:22;;;;;;;8.05;5.07;;;;;;;;;;4426419;32;316901;-85
2023/07/19 11:05:52;;;;;;;8.32;4.60;;;;;;;;;;4405933;32;316860;-85
2023/07/19 11:08:23;;;;;;;5.30;4.40;;;;;;;;;;4417645;32;316729;-85
2023/07/19 11:10:51;;;;;;;5.43;4.60;;;;;;;;;;4406222;32;316683;-85
2023/07/19 11:13:20;;;;;;;14.15;5.18;;;;;;;;;;4427916;32;316660;-85
2023/07/19 11:15:49;;;;;;;5.68;4.28;;;;;;;;;;4397191;32;416125;-85
2023/07/19 11:18:24;;;;;;;5.32;4.82;;;;;;;;;;4415040;32;316710;-85
2023/07/19 11:20:53;;;;;;;10.85;5.05;;;;;;;;;;4402770;32;418805;-85
2023/07/19 11:23:20;;;;;;;7.75;5.40;;;;;;;;;;4427548;32;317596;-86
2023/07/19 11:25:48;;;;;;;9.90;5.28;;;;;;;;;;4415992;32;316977;-86
2023/07/19 11:28:35;;;;;;;8.60;4.78;;;;;;;;;;4416526;32;316730;-85
2023/07/19 11:31:03;;;;;;;4.73;4.17;;;;;;;;;;4405662;32;317090;-85
2023/07/19 11:33:31;;;;;;;6.55;4.35;;;;;;;;;;4417530;32;316530;-85
2023/07/19 11:36:00;;;;;;;5.87;4.22;;;;;;;;;;4404962;32;316775;-85
2023/07/19 11:38:27;;;;;;;5.87;4.20;;;;;;;;;;4416795;32;317193;-85
2023/07/19 11:40:54;;;;;;;6.78;4.28;;;;;;;;;;4405780;32;316809;-85
2023/07/19 11:43:25;;;;;;;7.05;4.30;;;;;;;;;;4427609;32;316656;-85
2023/07/19 11:45:55;;;;;;;5.05;4.32;;;;;;;;;;4405123;32;316911;-85
2023/07/19 11:48:22;;;;;;;7.40;5.25;;;;;;;;;;4416413;32;317062;-85
2023/07/19 11:50:49;;;;;;;8.45;4.50;;;;;;;;;;4403331;32;316834;-86
2023/07/19 11:53:18;;;;;;;7.55;5.55;;;;;;;;;;4428213;32;316950;-85
2023/07/19 11:55:47;;;;;;;8.98;5.43;;;;;;;;;;4415627;32;316664;-86
2023/07/19 11:58:15;;;;;;;8.90;5.62;;;;;;;;;;4418131;32;316978;-85
2023/07/19 12:00:43;;;;;;;8.52;5.03;;;;;;;;;;4405409;32;418883;-86
2023/07/19 12:03:11;;;;;;;11.43;5.97;;;;;;;;;;4415132;32;316425;-85
2023/07/19 12:05:39;;;;;;;12.20;5.00;;;;;;;;;;4406569;32;327434;-85
2023/07/19 12:08:07;;;;;;;7.35;5.55;;;;;;;;;;4415254;32;317727;-84
2023/07/19 12:10:35;;;;;;;6.20;5.20;;;;;;;;;;4406467;32;316723;-85
2023/07/19 12:13:03;;;;;;;9.70;6.20;;;;;;;;;;4427796;32;316771;-85
2023/07/19 12:15:33;;;;;;;9.48;5.87;;;;;;;;;;4403964;32;316572;-85
2023/07/19 12:18:00;;;;;;;7.43;6.00;;;;;;;;;;4403407;32;316558;-84
2023/07/19 12:20:29;;;;;;;10.40;5.70;;;;;;;;;;4437277;32;20648;-85
2023/07/19 12:22:56;;;;;;;8.70;5.47;;;;;;;;;;4437847;32;20570;-84
2023/07/19 12:25:24;;;;;;;8.85;5.80;;;;;;;;;;4436993;32;20621;-84
2023/07/19 12:27:54;;;;;;;10.65;6.00;;;;;;;;;;4404796;32;315905;-84
2023/07/19 12:30:22;;;;;;;8.15;6.25;;;;;;;;;;4416247;32;317681;-84
2023/07/19 12:32:50;;;;;;;7.15;5.00;;;;;;;;;;4405552;32;316879;-84
2023/07/19 12:35:19;;;;;;;8.80;5.78;;;;;;;;;;4416740;32;316718;-84
2023/07/19 12:37:46;;;;;;;7.25;5.57;;;;;;;;;;4416645;32;316647;-83
2023/07/19 12:40:14;;;;;;;9.73;5.72;;;;;;;;;;4426534;32;316501;-85
2023/07/19 12:42:42;;;;;;;6.25;5.12;;;;;;;;;;4416113;32;317309;-85
2023/07/19 12:45:13;;;;;;;7.40;5.70;;;;;;;;;;4436565;32;20651;-83
2023/07/19 12:47:40;;;;;;;8.98;5.45;;;;;;;;;;4436603;32;20623;-85
2023/07/19 12:50:09;;;;;;;6.97;5.37;;;;;;;;;;4425839;32;315614;-84
2023/07/19 12:52:37;;;;;;;7.68;5.53;;;;;;;;;;4417299;32;316714;-86
2023/07/19 12:55:06;;;;;;;9.77;5.95;;;;;;;;;;4437083;32;20229;-88
2023/07/19 12:57:34;;;;;;;12.20;6.28;;;;;;;;;;4436510;32;20610;-88
2023/07/19 13:00:04;;;;;;;9.23;5.62;;;;;;;;;;4436868;32;20553;-86
2023/07/19 13:02:34;;;;;;;8.18;5.85;;;;;;;;;;4437246;32;20698;-85
2023/07/19 13:05:02;;;;;;;10.38;6.75;;;;;;;;;;4414892;32;315657;-86
2023/07/19 13:07:29;;;;;;;8.13;5.97;;;;;;;;;;4425337;32;317655;-85
2023/07/19 13:09:57;;;;;;;13.65;5.95;;;;;;;;;;4436789;32;20295;-86
2023/07/19 13:12:24;;;;;;;8.85;5.57;;;;;;;;;;4437140;32;20595;-85
2023/07/19 13:14:55;;;;;;;6.05;5.12;;;;;;;;;;4414823;32;315645;-86
2023/07/19 13:17:22;;;;;;;8.30;5.62;;;;;;;;;;4414924;32;316660;-85
2023/07/19 13:19:51;;;;;;;6.60;5.40;;;;;;;;;;4405472;32;317032;-86
2023/07/19 13:22:18;;;;;;;10.00;5.53;;;;;;;;;;4416934;32;316655;-83
2023/07/19 13:24:46;;;;;;;8.50;5.37;;;;;;;;;;4404907;32;318172;-86
2023/07/19 13:27:13;;;;;;;9.48;5.60;;;;;;;;;;4415569;32;316716;-86
2023/07/19 13:29:41;;;;;;;14.45;5.95;;;;;;;;;;4406299;32;316972;-87
2023/07/19 13:32:09;;;;;;;8.30;5.15;;;;;;;;;;4415430;32;317753;-85
2023/07/19 13:34:36;;;;;;;7.12;5.12;;;;;;;;;;4414437;32;316822;-84
2023/07/19 13:37:07;;;;;;;9.88;4.62;;;;;;;;;;4405367;32;317255;-84
2023/07/19 13:39:34;;;;;;;8.20;5.72;;;;;;;;;;4413767;32;317093;-84
2023/07/19 13:42:02;;;;;;;10.75;5.80;;;;;;;;;;4404592;32;316956;-84
2023/07/19 13:44:30;;;;;;;7.75;5.78;;;;;;;;;;4414629;32;317757;-85
2023/07/19 13:46:58;;;;;;;6.68;5.03;;;;;;;;;;4403159;32;316727;-84
2023/07/19 13:49:25;;;;;;;11.25;5.15;;;;;;;;;;4436648;32;20689;-85
2023/07/19 13:51:53;;;;;;;8.23;5.22;;;;;;;;;;4436335;32;20579;-84
2023/07/19 13:54:22;;;;;;;8.27;5.47;;;;;;;;;;4425661;32;315892;-84
2023/07/19 13:56:49;;;;;;;7.40;5.00;;;;;;;;;;4405136;32;316722;-85
2023/07/19 13:59:16;;;;;;;11.40;5.30;;;;;;;;;;4415491;32;316870;-85
2023/07/19 14:01:44;;;;;;;6.82;5.45;;;;;;;;;;4407361;32;318017;-85
2023/07/19 14:04:12;;;;;;;9.90;5.05;;;;;;;;;;4417582;32;316917;-84
2023/07/19 14:06:39;;;;;;;11.18;5.70;;;;;;;;;;4408223;32;316973;-85
2023/07/19 14:09:07;;;;;;;6.32;4.62;;;;;;;;;;4417008;32;318162;-85
2023/07/19 14:11:35;;;;;;;10.48;5.68;;;;;;;;;;4418760;32;316648;-85
2023/07/19 14:14:03;;;;;;;9.50;5.45;;;;;;;;;;4427687;32;317721;-84
2023/07/19 14:16:31;;;;;;;5.62;4.82;;;;;;;;;;4416398;32;336918;-85
2023/07/19 14:18:58;;;;;;;6.40;5.37;;;;;;;;;;4427990;32;316885;-85
2023/07/19 14:21:26;;;;;;;9.23;4.80;;;;;;;;;;4417898;32;316777;-86
2023/07/19 14:23:53;;;;;;;7.97;4.85;;;;;;;;;;4406207;32;316966;-85
2023/07/19 14:26:23;;;;;;;10.20;5.60;;;;;;;;;;4418121;32;316926;-85
2023/07/19 14:28:52;;;;;;;13.18;6.03;;;;;;;;;;4404502;32;317711;-85
2023/07/19 14:31:20;;;;;;;6.65;5.32;;;;;;;;;;4418337;32;317879;-85
2023/07/19 14:33:48;;;;;;;6.87;5.12;;;;;;;;;;4404158;32;316725;-86